sensor_id;sensor_type;location;lat;lon;timestamp;pressure;altitude;pressure_sealevel;temperature;humidity
22651;BME280;11492;42.646;23.400;2023-04-01T00:01:55;94181.25;;;11.93;57.01
22651;BME280;11492;42.646;23.400;2023-04-01T00:04:21;94175.34;;;11.86;56.74
22651;BME280;11492;42.646;23.400;2023-04-01T00:06:47;94182.91;;;11.81;57.73
22651;BME280;11492;42.646;23.400;2023-04-01T00:09:13;94182.97;;;11.68;57.12
22651;BME280;11492;42.646;23.400;2023-04-01T00:11:39;94185.41;;;11.57;58.17
22651;BME280;11492;42.646;23.400;2023-04-01T00:14:06;94189.00;;;11.49;58.36
22651;BME280;11492;42.646;23.400;2023-04-01T00:16:31;94177.09;;;11.36;58.15
22651;BME280;11492;42.646;23.400;2023-04-01T00:18:57;94191.41;;;11.32;58.00
22651;BME280;11492;42.646;23.400;2023-04-01T00:21:22;94181.88;;;11.26;58.84
22651;BME280;11492;42.646;23.400;2023-04-01T00:23:49;94179.09;;;11.21;59.35
22651;BME280;11492;42.646;23.400;2023-04-01T00:26:15;94184.09;;;11.16;59.74
22651;BME280;11492;42.646;23.400;2023-04-01T00:28:44;94195.63;;;11.14;59.27
22651;BME280;11492;42.646;23.400;2023-04-01T00:31:11;94184.72;;;11.05;59.91
22651;BME280;11492;42.646;23.400;2023-04-01T00:33:37;94178.53;;;11.06;60.04
22651;BME280;11492;42.646;23.400;2023-04-01T00:38:32;94178.97;;;10.91;60.88
22651;BME280;11492;42.646;23.400;2023-04-01T00:40:57;94175.41;;;10.79;60.70
22651;BME280;11492;42.646;23.400;2023-04-01T00:43:23;94168.25;;;10.81;61.39
22651;BME280;11492;42.646;23.400;2023-04-01T00:45:49;94163.50;;;10.78;60.67
22651;BME280;11492;42.646;23.400;2023-04-01T00:48:24;94162.09;;;10.75;61.37
22651;BME280;11492;42.646;23.400;2023-04-01T00:50:53;94167.25;;;10.75;61.49
22651;BME280;11492;42.646;23.400;2023-04-01T00:53:21;94143.25;;;10.62;61.85
22651;BME280;11492;42.646;23.400;2023-04-01T00:55:54;94139.69;;;10.63;61.32
22651;BME280;11492;42.646;23.400;2023-04-01T00:58:24;94146.44;;;10.77;61.33
22651;BME280;11492;42.646;23.400;2023-04-01T01:00:50;94142.25;;;10.76;60.42
22651;BME280;11492;42.646;23.400;2023-04-01T01:03:16;94138.25;;;10.80;62.02
22651;BME280;11492;42.646;23.400;2023-04-01T01:08:36;94139.66;;;10.76;59.88
22651;BME280;11492;42.646;23.400;2023-04-01T01:11:08;94136.09;;;10.64;60.55
22651;BME280;11492;42.646;23.400;2023-04-01T01:13:49;94110.31;;;10.58;60.43
22651;BME280;11492;42.646;23.400;2023-04-01T01:16:27;94106.94;;;10.51;60.02
22651;BME280;11492;42.646;23.400;2023-04-01T01:19:09;94118.41;;;10.74;59.96
22651;BME280;11492;42.646;23.400;2023-04-01T01:21:56;94094.41;;;10.73;60.74
22651;BME280;11492;42.646;23.400;2023-04-01T01:27:11;94087.47;;;10.68;61.40
22651;BME280;11492;42.646;23.400;2023-04-01T01:32:56;94113.41;;;10.92;61.19
22651;BME280;11492;42.646;23.400;2023-04-01T01:35:48;94090.41;;;10.84;59.42
22651;BME280;11492;42.646;23.400;2023-04-01T01:38:17;94086.59;;;10.99;60.09
22651;BME280;11492;42.646;23.400;2023-04-01T01:40:48;94087.38;;;10.99;60.58
22651;BME280;11492;42.646;23.400;2023-04-01T01:43:25;94074.06;;;10.96;60.71
22651;BME280;11492;42.646;23.400;2023-04-01T01:45:55;94070.69;;;10.95;60.81
22651;BME280;11492;42.646;23.400;2023-04-01T01:48:23;94067.50;;;11.00;59.00
22651;BME280;11492;42.646;23.400;2023-04-01T01:50:50;94056.78;;;10.96;60.07
22651;BME280;11492;42.646;23.400;2023-04-01T01:53:16;94084.41;;;11.02;59.90
22651;BME280;11492;42.646;23.400;2023-04-01T01:55:44;94078.06;;;10.86;59.26
22651;BME280;11492;42.646;23.400;2023-04-01T01:58:24;94070.31;;;10.92;58.68
22651;BME280;11492;42.646;23.400;2023-04-01T02:01:03;94052.00;;;11.00;58.79
22651;BME280;11492;42.646;23.400;2023-04-01T02:03:33;94063.72;;;10.96;57.53
22651;BME280;11492;42.646;23.400;2023-04-01T02:06:00;94058.31;;;11.10;56.52
22651;BME280;11492;42.646;23.400;2023-04-01T02:08:47;94044.75;;;11.21;57.15
22651;BME280;11492;42.646;23.400;2023-04-01T02:11:16;94052.69;;;11.26;57.78
22651;BME280;11492;42.646;23.400;2023-04-01T02:13:52;94054.88;;;11.29;57.82
22651;BME280;11492;42.646;23.400;2023-04-01T02:16:27;94046.75;;;11.19;57.51
22651;BME280;11492;42.646;23.400;2023-04-01T02:18:55;94051.28;;;11.30;58.09
22651;BME280;11492;42.646;23.400;2023-04-01T02:21:24;94042.13;;;11.34;58.70
22651;BME280;11492;42.646;23.400;2023-04-01T02:23:53;94025.63;;;11.35;58.01
22651;BME280;11492;42.646;23.400;2023-04-01T02:26:22;94039.16;;;11.37;58.66
22651;BME280;11492;42.646;23.400;2023-04-01T02:28:51;94032.56;;;11.41;58.86
22651;BME280;11492;42.646;23.400;2023-04-01T02:31:18;94022.63;;;11.38;59.05
22651;BME280;11492;42.646;23.400;2023-04-01T02:33:44;94015.69;;;11.32;58.99
22651;BME280;11492;42.646;23.400;2023-04-01T02:36:12;94033.56;;;11.40;59.60
22651;BME280;11492;42.646;23.400;2023-04-01T02:38:39;94035.38;;;11.39;57.76
22651;BME280;11492;42.646;23.400;2023-04-01T02:41:05;94027.97;;;11.43;55.81
22651;BME280;11492;42.646;23.400;2023-04-01T02:43:31;94035.50;;;11.50;56.94
22651;BME280;11492;42.646;23.400;2023-04-01T02:45:57;94020.66;;;11.40;56.73
22651;BME280;11492;42.646;23.400;2023-04-01T02:48:22;94047.19;;;11.59;57.63
22651;BME280;11492;42.646;23.400;2023-04-01T02:50:48;94040.63;;;11.57;57.32
22651;BME280;11492;42.646;23.400;2023-04-01T02:53:14;94040.78;;;11.62;56.63
22651;BME280;11492;42.646;23.400;2023-04-01T02:55:40;94055.41;;;11.74;57.67
22651;BME280;11492;42.646;23.400;2023-04-01T02:58:05;94057.59;;;11.77;57.20
22651;BME280;11492;42.646;23.400;2023-04-01T03:00:31;94054.06;;;11.71;56.62
22651;BME280;11492;42.646;23.400;2023-04-01T03:02:56;94056.03;;;11.76;57.29
22651;BME280;11492;42.646;23.400;2023-04-01T03:05:22;94069.13;;;11.81;57.15
22651;BME280;11492;42.646;23.400;2023-04-01T03:07:48;94080.25;;;11.81;56.48
22651;BME280;11492;42.646;23.400;2023-04-01T03:10:14;94079.06;;;11.77;57.12
22651;BME280;11492;42.646;23.400;2023-04-01T03:12:39;94081.63;;;11.84;57.31
22651;BME280;11492;42.646;23.400;2023-04-01T03:15:05;94089.22;;;11.79;57.59
22651;BME280;11492;42.646;23.400;2023-04-01T03:17:31;94089.81;;;11.74;58.05
22651;BME280;11492;42.646;23.400;2023-04-01T03:19:56;94064.28;;;11.60;58.14
22651;BME280;11492;42.646;23.400;2023-04-01T03:22:22;94087.91;;;11.64;57.56
22651;BME280;11492;42.646;23.400;2023-04-01T03:24:48;94089.53;;;11.58;58.54
22651;BME280;11492;42.646;23.400;2023-04-01T03:27:13;94084.78;;;11.55;58.07
22651;BME280;11492;42.646;23.400;2023-04-01T03:29:39;94089.22;;;11.42;58.46
22651;BME280;11492;42.646;23.400;2023-04-01T03:32:05;94060.03;;;11.22;58.12
22651;BME280;11492;42.646;23.400;2023-04-01T03:34:30;94088.91;;;11.20;58.37
22651;BME280;11492;42.646;23.400;2023-04-01T03:36:56;94077.56;;;11.20;58.21
22651;BME280;11492;42.646;23.400;2023-04-01T03:39:22;94063.44;;;11.23;58.78
22651;BME280;11492;42.646;23.400;2023-04-01T03:41:47;94068.94;;;11.33;59.68
22651;BME280;11492;42.646;23.400;2023-04-01T03:44:13;94078.09;;;11.35;59.82
22651;BME280;11492;42.646;23.400;2023-04-01T03:46:39;94059.81;;;11.30;60.65
22651;BME280;11492;42.646;23.400;2023-04-01T03:49:09;94060.41;;;11.39;60.86
22651;BME280;11492;42.646;23.400;2023-04-01T03:51:39;94058.59;;;11.46;61.05
22651;BME280;11492;42.646;23.400;2023-04-01T03:54:05;94057.38;;;11.48;61.60
22651;BME280;11492;42.646;23.400;2023-04-01T03:56:31;94051.00;;;11.50;61.63
22651;BME280;11492;42.646;23.400;2023-04-01T03:58:56;94039.84;;;11.56;62.08
22651;BME280;11492;42.646;23.400;2023-04-01T04:01:22;94024.09;;;11.58;62.35
22651;BME280;11492;42.646;23.400;2023-04-01T04:03:49;94009.22;;;11.53;62.23
22651;BME280;11492;42.646;23.400;2023-04-01T04:06:15;94002.91;;;11.49;60.87
22651;BME280;11492;42.646;23.400;2023-04-01T04:08:41;93978.41;;;11.52;59.05
22651;BME280;11492;42.646;23.400;2023-04-01T04:11:07;93986.13;;;11.58;58.58
22651;BME280;11492;42.646;23.400;2023-04-01T04:13:32;93979.75;;;11.61;59.15
22651;BME280;11492;42.646;23.400;2023-04-01T04:15:58;93984.88;;;11.67;58.81
22651;BME280;11492;42.646;23.400;2023-04-01T04:18:24;93972.50;;;11.69;58.92
22651;BME280;11492;42.646;23.400;2023-04-01T04:20:49;93966.13;;;11.71;57.79
22651;BME280;11492;42.646;23.400;2023-04-01T04:23:17;93956.81;;;11.71;56.91
22651;BME280;11492;42.646;23.400;2023-04-01T04:26:00;93955.00;;;11.71;58.26
22651;BME280;11492;42.646;23.400;2023-04-01T04:28:26;93941.28;;;11.71;56.76
22651;BME280;11492;42.646;23.400;2023-04-01T04:30:53;93953.22;;;11.71;56.78
22651;BME280;11492;42.646;23.400;2023-04-01T04:33:18;93947.03;;;11.72;57.05
22651;BME280;11492;42.646;23.400;2023-04-01T04:35:44;93955.72;;;11.78;56.60
22651;BME280;11492;42.646;23.400;2023-04-01T04:38:10;93941.38;;;11.82;55.51
22651;BME280;11492;42.646;23.400;2023-04-01T04:40:39;93925.66;;;11.83;55.53
22651;BME280;11492;42.646;23.400;2023-04-01T04:43:05;93910.41;;;11.75;56.58
22651;BME280;11492;42.646;23.400;2023-04-01T04:45:31;93909.97;;;11.78;54.27
22651;BME280;11492;42.646;23.400;2023-04-01T04:47:56;93903.75;;;11.86;53.99
22651;BME280;11492;42.646;23.400;2023-04-01T04:50:23;93899.69;;;11.96;55.03
22651;BME280;11492;42.646;23.400;2023-04-01T04:52:49;93907.78;;;11.99;53.75
22651;BME280;11492;42.646;23.400;2023-04-01T04:55:14;93895.22;;;12.03;55.68
22651;BME280;11492;42.646;23.400;2023-04-01T04:57:40;93882.06;;;12.04;54.06
22651;BME280;11492;42.646;23.400;2023-04-01T05:00:06;93887.53;;;12.14;53.34
22651;BME280;11492;42.646;23.400;2023-04-01T05:02:33;93882.81;;;12.11;53.57
22651;BME280;11492;42.646;23.400;2023-04-01T05:04:58;93893.88;;;12.18;54.18
22651;BME280;11492;42.646;23.400;2023-04-01T05:07:24;93882.28;;;12.20;53.63
22651;BME280;11492;42.646;23.400;2023-04-01T05:09:49;93870.50;;;12.24;53.95
22651;BME280;11492;42.646;23.400;2023-04-01T05:12:15;93875.25;;;12.27;53.93
22651;BME280;11492;42.646;23.400;2023-04-01T05:14:40;93870.63;;;12.29;52.62
22651;BME280;11492;42.646;23.400;2023-04-01T05:17:09;93874.00;;;12.30;53.90
22651;BME280;11492;42.646;23.400;2023-04-01T05:19:34;93859.47;;;12.46;60.35
22651;BME280;11492;42.646;23.400;2023-04-01T05:22:00;93873.34;;;12.52;58.92
22651;BME280;11492;42.646;23.400;2023-04-01T05:24:25;93865.66;;;12.45;55.17
22651;BME280;11492;42.646;23.400;2023-04-01T05:26:51;93872.81;;;12.61;55.99
22651;BME280;11492;42.646;23.400;2023-04-01T05:29:16;93850.34;;;12.44;55.07
22651;BME280;11492;42.646;23.400;2023-04-01T05:31:41;93844.53;;;12.31;54.20
22651;BME280;11492;42.646;23.400;2023-04-01T05:34:07;93858.53;;;12.41;54.84
22651;BME280;11492;42.646;23.400;2023-04-01T05:36:33;93849.13;;;12.46;54.35
22651;BME280;11492;42.646;23.400;2023-04-01T05:38:59;93869.22;;;12.62;55.48
22651;BME280;11492;42.646;23.400;2023-04-01T05:41:25;93841.06;;;12.54;53.87
22651;BME280;11492;42.646;23.400;2023-04-01T05:43:50;93841.34;;;12.46;53.93
22651;BME280;11492;42.646;23.400;2023-04-01T05:46:16;93843.78;;;12.59;54.60
22651;BME280;11492;42.646;23.400;2023-04-01T05:48:41;93858.03;;;12.68;53.81
22651;BME280;11492;42.646;23.400;2023-04-01T05:51:12;93858.81;;;12.69;53.87
22651;BME280;11492;42.646;23.400;2023-04-01T05:53:38;93865.56;;;12.70;54.34
22651;BME280;11492;42.646;23.400;2023-04-01T05:56:04;93850.00;;;12.41;54.13
22651;BME280;11492;42.646;23.400;2023-04-01T05:58:30;93851.84;;;12.51;53.59
22651;BME280;11492;42.646;23.400;2023-04-01T06:01:04;93846.22;;;12.72;53.94
22651;BME280;11492;42.646;23.400;2023-04-01T06:03:30;93831.84;;;12.87;53.00
22651;BME280;11492;42.646;23.400;2023-04-01T06:05:56;93834.16;;;12.95;52.96
22651;BME280;11492;42.646;23.400;2023-04-01T06:08:21;93829.78;;;13.07;53.11
22651;BME280;11492;42.646;23.400;2023-04-01T06:11:05;93825.31;;;13.25;52.53
22651;BME280;11492;42.646;23.400;2023-04-01T06:16:25;93841.22;;;13.40;51.54
22651;BME280;11492;42.646;23.400;2023-04-01T06:21:37;93829.50;;;13.60;51.64
22651;BME280;11492;42.646;23.400;2023-04-01T06:27:12;93830.75;;;13.80;51.13
22651;BME280;11492;42.646;23.400;2023-04-01T06:29:57;93829.16;;;13.79;51.25
22651;BME280;11492;42.646;23.400;2023-04-01T06:32:38;93841.00;;;13.86;51.58
22651;BME280;11492;42.646;23.400;2023-04-01T06:35:17;93817.56;;;13.93;50.88
22651;BME280;11492;42.646;23.400;2023-04-01T06:53:57;93808.28;;;13.85;52.23
22651;BME280;11492;42.646;23.400;2023-04-01T06:56:27;93808.28;;;13.85;52.49
22651;BME280;11492;42.646;23.400;2023-04-01T06:58:58;93799.41;;;13.93;51.99
22651;BME280;11492;42.646;23.400;2023-04-01T07:01:35;93779.19;;;13.83;52.36
22651;BME280;11492;42.646;23.400;2023-04-01T07:04:06;93765.19;;;13.84;52.09
22651;BME280;11492;42.646;23.400;2023-04-01T07:06:42;93751.97;;;13.86;53.00
22651;BME280;11492;42.646;23.400;2023-04-01T07:09:12;93757.97;;;13.86;52.58
22651;BME280;11492;42.646;23.400;2023-04-01T07:11:40;93776.22;;;13.91;52.96
22651;BME280;11492;42.646;23.400;2023-04-01T07:16:54;93784.63;;;13.93;53.62
22651;BME280;11492;42.646;23.400;2023-04-01T07:19:29;93755.16;;;13.99;53.46
22651;BME280;11492;42.646;23.400;2023-04-01T07:22:26;93765.59;;;14.15;53.47
22651;BME280;11492;42.646;23.400;2023-04-01T07:24:55;93726.81;;;14.09;53.64
22651;BME280;11492;42.646;23.400;2023-04-01T07:27:23;93740.28;;;14.22;53.96
22651;BME280;11492;42.646;23.400;2023-04-01T07:29:48;93762.72;;;14.28;54.00
22651;BME280;11492;42.646;23.400;2023-04-01T07:32:20;93774.38;;;14.25;54.72
22651;BME280;11492;42.646;23.400;2023-04-01T07:43:42;93753.16;;;14.56;53.42
22651;BME280;11492;42.646;23.400;2023-04-01T07:51:33;93732.81;;;14.80;51.86
22651;BME280;11492;42.646;23.400;2023-04-01T07:56:51;93748.22;;;15.14;51.05
22651;BME280;11492;42.646;23.400;2023-04-01T08:02:28;93753.56;;;15.24;51.15
22651;BME280;11492;42.646;23.400;2023-04-01T08:10:55;93735.38;;;15.24;50.73
22651;BME280;11492;42.646;23.400;2023-04-01T08:21:31;93738.94;;;15.55;49.67
22651;BME280;11492;42.646;23.400;2023-04-01T08:23:59;93707.66;;;15.50;49.95
22651;BME280;11492;42.646;23.400;2023-04-01T08:29:23;93700.13;;;15.70;49.87
22651;BME280;11492;42.646;23.400;2023-04-01T08:32:03;93696.31;;;15.77;49.28
22651;BME280;11492;42.646;23.400;2023-04-01T08:34:35;93689.97;;;15.69;48.47
22651;BME280;11492;42.646;23.400;2023-04-01T08:37:13;93692.97;;;15.82;48.61
22651;BME280;11492;42.646;23.400;2023-04-01T08:39:47;93665.84;;;15.78;47.93
22651;BME280;11492;42.646;23.400;2023-04-01T08:48:10;93643.22;;;15.99;48.59
22651;BME280;11492;42.646;23.400;2023-04-01T09:13:10;93648.22;;;16.53;45.91
22651;BME280;11492;42.646;23.400;2023-04-01T09:18:49;93620.81;;;16.50;45.72
22651;BME280;11492;42.646;23.400;2023-04-01T09:21:31;93629.31;;;16.67;45.70
22651;BME280;11492;42.646;23.400;2023-04-01T09:29:50;93632.50;;;17.05;45.02
22651;BME280;11492;42.646;23.400;2023-04-01T09:40:57;93607.59;;;17.23;43.82
22651;BME280;11492;42.646;23.400;2023-04-01T09:58:36;93587.38;;;17.50;42.47
22651;BME280;11492;42.646;23.400;2023-04-01T10:04:23;93583.72;;;17.51;43.02
22651;BME280;11492;42.646;23.400;2023-04-01T10:15:50;93578.69;;;17.35;43.63
22651;BME280;11492;42.646;23.400;2023-04-01T10:22:12;93568.81;;;17.47;43.67
22651;BME280;11492;42.646;23.400;2023-04-01T10:30:50;93561.00;;;17.51;43.81
22651;BME280;11492;42.646;23.400;2023-04-01T10:53:46;93523.38;;;17.43;45.18
22651;BME280;11492;42.646;23.400;2023-04-01T11:16:29;93505.50;;;17.15;44.19
22651;BME280;11492;42.646;23.400;2023-04-01T11:22:24;93497.19;;;17.18;45.22
22651;BME280;11492;42.646;23.400;2023-04-01T11:44:32;93592.06;;;17.07;39.44
22651;BME280;11492;42.646;23.400;2023-04-01T11:47:19;93615.25;;;16.68;44.26
22651;BME280;11492;42.646;23.400;2023-04-01T11:55:35;93721.09;;;14.50;56.00
22651;BME280;11492;42.646;23.400;2023-04-01T12:04:17;93782.25;;;13.24;65.76
22651;BME280;11492;42.646;23.400;2023-04-01T12:12:27;93734.25;;;12.70;70.46
22651;BME280;11492;42.646;23.400;2023-04-01T12:20:50;93770.03;;;12.62;73.47
22651;BME280;11492;42.646;23.400;2023-04-01T12:48:31;93779.66;;;13.58;74.85
22651;BME280;11492;42.646;23.400;2023-04-01T12:54:18;93779.78;;;13.51;75.48
22651;BME280;11492;42.646;23.400;2023-04-01T13:02:24;93758.47;;;13.27;74.96
22651;BME280;11492;42.646;23.400;2023-04-01T13:05:15;93751.59;;;13.21;75.46
22651;BME280;11492;42.646;23.400;2023-04-01T13:07:57;93750.81;;;13.21;75.55
22651;BME280;11492;42.646;23.400;2023-04-01T13:10:56;93736.16;;;13.15;75.34
22651;BME280;11492;42.646;23.400;2023-04-01T13:16:17;93742.91;;;13.04;74.98
22651;BME280;11492;42.646;23.400;2023-04-01T13:24:29;93672.91;;;13.38;61.75
22651;BME280;11492;42.646;23.400;2023-04-01T13:27:12;93658.94;;;13.78;59.92
22651;BME280;11492;42.646;23.400;2023-04-01T13:29:43;93649.72;;;14.09;61.15
22651;BME280;11492;42.646;23.400;2023-04-01T13:35:34;93624.72;;;15.00;61.83
22651;BME280;11492;42.646;23.400;2023-04-01T13:41:04;93606.47;;;15.75;57.78
22651;BME280;11492;42.646;23.400;2023-04-01T13:43:37;93603.44;;;15.83;57.79
22651;BME280;11492;42.646;23.400;2023-04-01T13:46:41;93615.50;;;15.89;60.15
22651;BME280;11492;42.646;23.400;2023-04-01T14:00:22;93613.19;;;17.06;57.54
22651;BME280;11492;42.646;23.400;2023-04-01T14:08:51;93592.00;;;16.97;60.19
22651;BME280;11492;42.646;23.400;2023-04-01T14:11:29;93585.00;;;17.03;60.59
22651;BME280;11492;42.646;23.400;2023-04-01T14:22:25;93600.78;;;16.51;61.44
22651;BME280;11492;42.646;23.400;2023-04-01T14:25:17;93574.84;;;16.40;61.69
22651;BME280;11492;42.646;23.400;2023-04-01T14:41:45;93555.25;;;15.80;63.17
22651;BME280;11492;42.646;23.400;2023-04-01T14:49:36;93565.47;;;15.87;62.95
22651;BME280;11492;42.646;23.400;2023-04-01T14:52:13;93557.03;;;16.01;62.49
22651;BME280;11492;42.646;23.400;2023-04-01T14:54:44;93554.78;;;16.09;62.23
22651;BME280;11492;42.646;23.400;2023-04-01T14:57:30;93548.72;;;16.30;60.81
22651;BME280;11492;42.646;23.400;2023-04-01T15:00:17;93556.53;;;16.30;60.66
22651;BME280;11492;42.646;23.400;2023-04-01T15:03:12;93545.78;;;16.22;60.44
22651;BME280;11492;42.646;23.400;2023-04-01T15:10:58;93551.63;;;15.81;62.75
22651;BME280;11492;42.646;23.400;2023-04-01T15:36:04;93585.09;;;15.10;65.35
22651;BME280;11492;42.646;23.400;2023-04-01T15:38:58;93586.84;;;15.04;65.02
22651;BME280;11492;42.646;23.400;2023-04-01T15:41:40;93588.66;;;14.88;65.12
22651;BME280;11492;42.646;23.400;2023-04-01T15:46:58;93586.19;;;14.60;65.55
22651;BME280;11492;42.646;23.400;2023-04-01T15:49:33;93596.72;;;14.54;65.10
22651;BME280;11492;42.646;23.400;2023-04-01T15:57:52;93759.34;;;13.77;67.57
22651;BME280;11492;42.646;23.400;2023-04-01T16:03:40;93771.97;;;12.95;61.80
22651;BME280;11492;42.646;23.400;2023-04-01T16:12:07;93864.28;;;11.72;69.71
22651;BME280;11492;42.646;23.400;2023-04-01T16:20:44;93884.31;;;10.68;73.60
22651;BME280;11492;42.646;23.400;2023-04-01T16:26:07;93883.56;;;10.12;76.32
22651;BME280;11492;42.646;23.400;2023-04-01T16:28:50;93899.91;;;9.87;76.80
22651;BME280;11492;42.646;23.400;2023-04-01T16:31:32;93883.03;;;9.91;77.75
22651;BME280;11492;42.646;23.400;2023-04-01T16:34:17;93882.84;;;9.86;78.15
22651;BME280;11492;42.646;23.400;2023-04-01T16:45:30;93911.78;;;9.75;78.26
22651;BME280;11492;42.646;23.400;2023-04-01T16:48:06;93911.38;;;9.78;78.74
22651;BME280;11492;42.646;23.400;2023-04-01T16:50:59;93912.56;;;9.75;77.85
22651;BME280;11492;42.646;23.400;2023-04-01T16:53:42;93914.56;;;9.93;78.71
22651;BME280;11492;42.646;23.400;2023-04-01T16:56:23;93894.94;;;9.66;76.65
22651;BME280;11492;42.646;23.400;2023-04-01T16:59:17;93895.53;;;9.81;77.99
22651;BME280;11492;42.646;23.400;2023-04-01T17:02:17;93894.34;;;9.83;76.71
22651;BME280;11492;42.646;23.400;2023-04-01T17:04:58;93900.28;;;9.71;76.72
22651;BME280;11492;42.646;23.400;2023-04-01T17:13:46;93869.41;;;9.58;75.79
22651;BME280;11492;42.646;23.400;2023-04-01T17:27:50;93925.28;;;9.45;74.96
22651;BME280;11492;42.646;23.400;2023-04-01T17:32:52;93919.16;;;9.52;75.42
22651;BME280;11492;42.646;23.400;2023-04-01T17:43:48;93957.78;;;9.40;74.22
22651;BME280;11492;42.646;23.400;2023-04-01T17:55:12;93971.66;;;9.51;72.67
22651;BME280;11492;42.646;23.400;2023-04-01T18:20:04;94016.47;;;9.70;76.16
22651;BME280;11492;42.646;23.400;2023-04-01T18:22:45;94011.72;;;9.73;73.92
22651;BME280;11492;42.646;23.400;2023-04-01T18:25:40;94017.47;;;9.75;73.00
22651;BME280;11492;42.646;23.400;2023-04-01T18:28:38;94016.47;;;9.76;74.06
22651;BME280;11492;42.646;23.400;2023-04-01T18:36:17;94003.38;;;9.58;73.35
22651;BME280;11492;42.646;23.400;2023-04-01T18:38:55;94000.19;;;9.56;73.40
22651;BME280;11492;42.646;23.400;2023-04-01T18:41:53;94020.00;;;9.62;73.33
22651;BME280;11492;42.646;23.400;2023-04-01T18:47:44;94027.16;;;9.60;73.22
22651;BME280;11492;42.646;23.400;2023-04-01T18:52:50;94023.19;;;9.51;73.79
22651;BME280;11492;42.646;23.400;2023-04-01T18:55:29;94027.53;;;9.45;75.34
22651;BME280;11492;42.646;23.400;2023-04-01T18:58:11;94037.44;;;9.41;75.76
22651;BME280;11492;42.646;23.400;2023-04-01T19:00:43;94040.19;;;9.33;75.53
22651;BME280;11492;42.646;23.400;2023-04-01T19:03:45;94051.72;;;9.37;75.68
22651;BME280;11492;42.646;23.400;2023-04-01T19:06:30;94049.50;;;9.41;76.75
22651;BME280;11492;42.646;23.400;2023-04-01T19:09:23;94062.81;;;9.38;76.27
22651;BME280;11492;42.646;23.400;2023-04-01T19:25:55;94066.75;;;9.34;70.99
22651;BME280;11492;42.646;23.400;2023-04-01T19:31:40;94077.13;;;9.59;71.36
22651;BME280;11492;42.646;23.400;2023-04-01T19:45:14;94094.78;;;9.81;69.47
22651;BME280;11492;42.646;23.400;2023-04-01T19:48:05;94106.13;;;9.87;68.50
22651;BME280;11492;42.646;23.400;2023-04-01T19:50:51;94116.59;;;9.79;67.59
22651;BME280;11492;42.646;23.400;2023-04-01T19:58:35;94121.34;;;9.82;67.00
22651;BME280;11492;42.646;23.400;2023-04-01T20:01:12;94113.63;;;9.82;67.61
22651;BME280;11492;42.646;23.400;2023-04-01T20:03:49;94116.03;;;9.83;67.40
22651;BME280;11492;42.646;23.400;2023-04-01T20:06:43;94110.63;;;9.72;66.03
22651;BME280;11492;42.646;23.400;2023-04-01T20:14:51;94096.16;;;9.58;64.51
22651;BME280;11492;42.646;23.400;2023-04-01T20:17:38;94099.50;;;9.52;64.91
22651;BME280;11492;42.646;23.400;2023-04-01T20:25:20;94115.59;;;9.73;66.82
22651;BME280;11492;42.646;23.400;2023-04-01T20:27:51;94112.78;;;9.56;63.70
22651;BME280;11492;42.646;23.400;2023-04-01T20:30:25;94106.47;;;9.58;63.61
22651;BME280;11492;42.646;23.400;2023-04-01T20:41:27;94111.19;;;9.48;62.43
22651;BME280;11492;42.646;23.400;2023-04-01T20:44:04;94096.09;;;9.45;62.63
22651;BME280;11492;42.646;23.400;2023-04-01T20:46:52;94109.63;;;9.60;62.31
22651;BME280;11492;42.646;23.400;2023-04-01T20:49:32;94112.19;;;9.67;62.81
22651;BME280;11492;42.646;23.400;2023-04-01T20:57:36;94114.34;;;9.50;63.09
22651;BME280;11492;42.646;23.400;2023-04-01T21:18:53;94131.81;;;9.61;66.25
22651;BME280;11492;42.646;23.400;2023-04-01T21:21:53;94124.50;;;9.58;65.05
22651;BME280;11492;42.646;23.400;2023-04-01T21:30:26;94145.03;;;9.45;65.10
22651;BME280;11492;42.646;23.400;2023-04-01T21:33:16;94140.50;;;9.47;64.67
22651;BME280;11492;42.646;23.400;2023-04-01T21:53:16;94140.56;;;9.67;64.18
22651;BME280;11492;42.646;23.400;2023-04-01T22:06:56;94135.03;;;9.70;66.12
22651;BME280;11492;42.646;23.400;2023-04-01T22:09:37;94149.69;;;9.69;66.56
22651;BME280;11492;42.646;23.400;2023-04-01T22:12:10;94144.31;;;9.64;66.90
22651;BME280;11492;42.646;23.400;2023-04-01T22:17:28;94135.38;;;9.54;67.92
22651;BME280;11492;42.646;23.400;2023-04-01T22:25:34;94129.72;;;9.31;68.61
22651;BME280;11492;42.646;23.400;2023-04-01T22:28:09;94120.97;;;9.13;68.91
22651;BME280;11492;42.646;23.400;2023-04-01T22:30:57;94123.31;;;9.15;69.85
22651;BME280;11492;42.646;23.400;2023-04-01T22:33:32;94134.97;;;9.04;70.19
22651;BME280;11492;42.646;23.400;2023-04-01T22:36:10;94122.03;;;8.92;69.51
22651;BME280;11492;42.646;23.400;2023-04-01T22:44:01;94134.19;;;8.71;70.10
22651;BME280;11492;42.646;23.400;2023-04-01T22:49:38;94151.22;;;8.71;67.99
22651;BME280;11492;42.646;23.400;2023-04-01T22:52:22;94153.22;;;8.76;67.55
22651;BME280;11492;42.646;23.400;2023-04-01T22:55:04;94153.22;;;8.76;68.06
22651;BME280;11492;42.646;23.400;2023-04-01T22:58:00;94156.41;;;8.78;68.60
22651;BME280;11492;42.646;23.400;2023-04-01T23:00:33;94163.88;;;8.73;66.96
22651;BME280;11492;42.646;23.400;2023-04-01T23:05:44;94167.88;;;8.75;65.15
22651;BME280;11492;42.646;23.400;2023-04-01T23:11:06;94138.25;;;8.86;64.66
22651;BME280;11492;42.646;23.400;2023-04-01T23:13:38;94149.03;;;9.02;61.73
22651;BME280;11492;42.646;23.400;2023-04-01T23:16:06;94146.25;;;9.03;62.32
22651;BME280;11492;42.646;23.400;2023-04-01T23:18:52;94141.91;;;9.04;62.51
22651;BME280;11492;42.646;23.400;2023-04-01T23:21:42;94160.16;;;9.15;62.26
22651;BME280;11492;42.646;23.400;2023-04-01T23:29:20;94164.59;;;9.27;61.90
22651;BME280;11492;42.646;23.400;2023-04-01T23:32:02;94169.34;;;9.30;61.21
22651;BME280;11492;42.646;23.400;2023-04-01T23:34:31;94175.50;;;9.29;61.02